logo
Rechercher aéroport 
image banner adimage banner adimage banner ad
image banner ad

1Q9 - Mili

Situé à Mili Island, Marshall Islands

ICAO - 1Q9, IATA -

Données fournies par Airmate  

Information générale

Coordonnées: N6°4'60" E171°43'60"
Élévation : 4 feet MSL.
Variation magnétique : 10° East
Voir autres Aéroports à Mili

Données opérationnelles

Special qualification required
Heure actuelle UTC:
Heure actuelle locale:
Météo à : - ( 0 km )
METAR: EHKD 251625Z AUTO 22011KT 190V250 9999 FEW008 BKN009 OVC010 15/13 Q1015 GRN TEMPO 4500 SHRA SCT008 SCT015CB BKN030
Voir NOTAMs / SUP AIP / TFR affectant cet aéroport [VIEW]
Fréquences de communication: [VIEW]

Pistes:

Identifiant RWYQFULongueur (ft)Largeur (ft)SurfaceLDA (ft)
05285075GRASS
23285075GRASS

Coordonnées de l'aéroport

Adresse: Mili Island Marshall Islands

Vue satellite de 1Q9